sensor_id;sensor_type;location;lat;lon;timestamp;pressure;altitude;pressure_sealevel;temperature;humidity
38812;BME280;24553;51.640;-0.752;2022-07-30T00:00:38;101127.94;;;16.89;100.00
38812;BME280;24553;51.640;-0.752;2022-07-30T00:03:04;101127.34;;;16.87;100.00
38812;BME280;24553;51.640;-0.752;2022-07-30T00:05:29;101125.31;;;16.82;100.00
38812;BME280;24553;51.640;-0.752;2022-07-30T00:07:54;101131.91;;;16.79;100.00
38812;BME280;24553;51.640;-0.752;2022-07-30T00:10:20;101131.72;;;16.81;100.00
38812;BME280;24553;51.640;-0.752;2022-07-30T00:12:47;101132.31;;;16.83;100.00
38812;BME280;24553;51.640;-0.752;2022-07-30T00:15:13;101130.47;;;16.84;100.00
38812;BME280;24553;51.640;-0.752;2022-07-30T00:17:38;101122.88;;;16.81;100.00
38812;BME280;24553;51.640;-0.752;2022-07-30T00:20:04;101119.75;;;16.77;100.00
38812;BME280;24553;51.640;-0.752;2022-07-30T00:22:30;101117.06;;;16.77;100.00
38812;BME280;24553;51.640;-0.752;2022-07-30T00:24:55;101117.94;;;16.71;100.00
38812;BME280;24553;51.640;-0.752;2022-07-30T00:27:21;101119.84;;;16.64;100.00
38812;BME280;24553;51.640;-0.752;2022-07-30T00:29:46;101118.84;;;16.58;100.00
38812;BME280;24553;51.640;-0.752;2022-07-30T00:32:11;101113.53;;;16.51;100.00
38812;BME280;24553;51.640;-0.752;2022-07-30T00:34:37;101116.25;;;16.45;100.00
38812;BME280;24553;51.640;-0.752;2022-07-30T00:37:02;101111.91;;;16.44;100.00
38812;BME280;24553;51.640;-0.752;2022-07-30T00:39:27;101118.69;;;16.46;100.00
38812;BME280;24553;51.640;-0.752;2022-07-30T00:41:56;101115.59;;;16.49;100.00
38812;BME280;24553;51.640;-0.752;2022-07-30T00:44:22;101110.41;;;16.54;100.00
38812;BME280;24553;51.640;-0.752;2022-07-30T00:46:48;101108.34;;;16.56;100.00
38812;BME280;24553;51.640;-0.752;2022-07-30T00:49:13;101104.84;;;16.56;100.00
38812;BME280;24553;51.640;-0.752;2022-07-30T00:51:39;101103.22;;;16.55;100.00
38812;BME280;24553;51.640;-0.752;2022-07-30T00:54:04;101106.47;;;16.57;100.00
38812;BME280;24553;51.640;-0.752;2022-07-30T00:56:30;101103.59;;;16.58;100.00
38812;BME280;24553;51.640;-0.752;2022-07-30T00:58:55;101112.25;;;16.61;100.00
38812;BME280;24553;51.640;-0.752;2022-07-30T01:01:20;101116.34;;;16.63;100.00
38812;BME280;24553;51.640;-0.752;2022-07-30T01:03:46;101106.66;;;16.62;100.00
38812;BME280;24553;51.640;-0.752;2022-07-30T01:06:11;101108.53;;;16.62;100.00
38812;BME280;24553;51.640;-0.752;2022-07-30T01:08:37;101110.59;;;16.60;100.00
38812;BME280;24553;51.640;-0.752;2022-07-30T01:11:02;101112.28;;;16.54;100.00
38812;BME280;24553;51.640;-0.752;2022-07-30T01:13:28;101110.22;;;16.49;100.00
38812;BME280;24553;51.640;-0.752;2022-07-30T01:15:53;101108.22;;;16.45;100.00
38812;BME280;24553;51.640;-0.752;2022-07-30T01:18:19;101108.03;;;16.40;100.00
38812;BME280;24553;51.640;-0.752;2022-07-30T01:20:55;101099.59;;;16.36;100.00
38812;BME280;24553;51.640;-0.752;2022-07-30T01:23:36;101110.34;;;16.29;100.00
38812;BME280;24553;51.640;-0.752;2022-07-30T01:26:04;101112.22;;;16.29;100.00
38812;BME280;24553;51.640;-0.752;2022-07-30T01:28:34;101113.03;;;16.29;100.00
38812;BME280;24553;51.640;-0.752;2022-07-30T01:31:02;101107.88;;;16.28;100.00
38812;BME280;24553;51.640;-0.752;2022-07-30T01:33:29;101111.38;;;16.28;100.00
38812;BME280;24553;51.640;-0.752;2022-07-30T01:35:56;101107.06;;;16.27;100.00
38812;BME280;24553;51.640;-0.752;2022-07-30T01:38:24;101114.47;;;16.25;100.00
38812;BME280;24553;51.640;-0.752;2022-07-30T01:40:52;101114.47;;;16.25;100.00
38812;BME280;24553;51.640;-0.752;2022-07-30T01:43:19;101114.28;;;16.27;100.00
38812;BME280;24553;51.640;-0.752;2022-07-30T01:45:46;101108.13;;;16.26;100.00
38812;BME280;24553;51.640;-0.752;2022-07-30T01:48:13;101111.19;;;16.23;100.00
38812;BME280;24553;51.640;-0.752;2022-07-30T01:50:43;101110.00;;;16.19;100.00
38812;BME280;24553;51.640;-0.752;2022-07-30T01:53:13;101114.94;;;16.16;100.00
38812;BME280;24553;51.640;-0.752;2022-07-30T01:55:40;101104.28;;;16.09;100.00
38812;BME280;24553;51.640;-0.752;2022-07-30T01:58:08;101109.44;;;16.04;100.00
38812;BME280;24553;51.640;-0.752;2022-07-30T02:00:38;101108.03;;;15.95;100.00
38812;BME280;24553;51.640;-0.752;2022-07-30T02:03:05;101108.44;;;15.91;100.00
38812;BME280;24553;51.640;-0.752;2022-07-30T02:05:34;101110.94;;;15.86;100.00
38812;BME280;24553;51.640;-0.752;2022-07-30T02:08:10;101115.03;;;15.82;100.00
38812;BME280;24553;51.640;-0.752;2022-07-30T02:10:52;101112.78;;;15.79;100.00
38812;BME280;24553;51.640;-0.752;2022-07-30T02:13:22;101115.47;;;15.79;100.00
38812;BME280;24553;51.640;-0.752;2022-07-30T02:15:58;101108.28;;;15.73;100.00
38812;BME280;24553;51.640;-0.752;2022-07-30T02:18:30;101108.88;;;15.68;100.00
38812;BME280;24553;51.640;-0.752;2022-07-30T02:21:02;101113.84;;;15.65;100.00
38812;BME280;24553;51.640;-0.752;2022-07-30T02:23:30;101111.78;;;15.60;100.00
38812;BME280;24553;51.640;-0.752;2022-07-30T02:26:00;101114.25;;;15.55;100.00
38812;BME280;24553;51.640;-0.752;2022-07-30T02:28:27;101116.13;;;15.55;100.00
38812;BME280;24553;51.640;-0.752;2022-07-30T02:30:57;101113.03;;;15.51;100.00
38812;BME280;24553;51.640;-0.752;2022-07-30T02:33:31;101114.25;;;15.48;100.00
38812;BME280;24553;51.640;-0.752;2022-07-30T02:35:58;101120.84;;;15.53;100.00
38812;BME280;24553;51.640;-0.752;2022-07-30T02:38:23;101109.53;;;15.51;100.00
38812;BME280;24553;51.640;-0.752;2022-07-30T02:40:53;101106.03;;;15.43;100.00
38812;BME280;24553;51.640;-0.752;2022-07-30T02:43:20;101115.50;;;15.46;100.00
38812;BME280;24553;51.640;-0.752;2022-07-30T02:45:49;101115.09;;;15.42;100.00
38812;BME280;24553;51.640;-0.752;2022-07-30T02:48:15;101106.88;;;15.37;100.00
38812;BME280;24553;51.640;-0.752;2022-07-30T02:50:42;101112.66;;;15.34;100.00
38812;BME280;24553;51.640;-0.752;2022-07-30T02:53:10;101112.44;;;15.29;100.00
38812;BME280;24553;51.640;-0.752;2022-07-30T02:55:37;101109.97;;;15.27;100.00
38812;BME280;24553;51.640;-0.752;2022-07-30T02:58:05;101107.72;;;15.24;100.00
38812;BME280;24553;51.640;-0.752;2022-07-30T03:00:32;101103.63;;;15.22;100.00
38812;BME280;24553;51.640;-0.752;2022-07-30T03:02:59;101099.91;;;15.16;100.00
38812;BME280;24553;51.640;-0.752;2022-07-30T03:05:25;101101.34;;;15.12;100.00
38812;BME280;24553;51.640;-0.752;2022-07-30T03:07:53;101105.88;;;15.12;100.00
38812;BME280;24553;51.640;-0.752;2022-07-30T03:10:19;101106.50;;;15.14;100.00
38812;BME280;24553;51.640;-0.752;2022-07-30T03:12:45;101104.03;;;15.12;100.00
38812;BME280;24553;51.640;-0.752;2022-07-30T03:15:13;101097.03;;;15.11;100.00
38812;BME280;24553;51.640;-0.752;2022-07-30T03:17:44;101104.03;;;15.12;100.00
38812;BME280;24553;51.640;-0.752;2022-07-30T03:20:12;101101.78;;;15.16;100.00
38812;BME280;24553;51.640;-0.752;2022-07-30T03:22:42;101100.94;;;15.15;100.00
38812;BME280;24553;51.640;-0.752;2022-07-30T03:25:11;101106.06;;;15.17;100.00
38812;BME280;24553;51.640;-0.752;2022-07-30T03:27:38;101086.75;;;15.15;100.00
38812;BME280;24553;51.640;-0.752;2022-07-30T03:30:05;101092.94;;;15.09;100.00
38812;BME280;24553;51.640;-0.752;2022-07-30T03:32:31;101099.69;;;15.04;100.00
38812;BME280;24553;51.640;-0.752;2022-07-30T03:34:57;101088.44;;;15.02;100.00
38812;BME280;24553;51.640;-0.752;2022-07-30T03:37:25;101087.19;;;14.98;100.00
38812;BME280;24553;51.640;-0.752;2022-07-30T03:39:51;101087.78;;;14.94;100.00
38812;BME280;24553;51.640;-0.752;2022-07-30T03:42:18;101086.78;;;14.88;100.00
38812;BME280;24553;51.640;-0.752;2022-07-30T03:44:45;101093.34;;;14.86;100.00
38812;BME280;24553;51.640;-0.752;2022-07-30T03:47:12;101089.22;;;14.83;100.00
38812;BME280;24553;51.640;-0.752;2022-07-30T03:49:38;101094.16;;;14.79;100.00
38812;BME280;24553;51.640;-0.752;2022-07-30T03:52:04;101096.22;;;14.77;100.00
38812;BME280;24553;51.640;-0.752;2022-07-30T03:54:31;101113.22;;;14.76;100.00
38812;BME280;24553;51.640;-0.752;2022-07-30T03:57:01;101106.06;;;14.77;100.00
38812;BME280;24553;51.640;-0.752;2022-07-30T03:59:28;101101.53;;;14.84;100.00
38812;BME280;24553;51.640;-0.752;2022-07-30T04:01:53;101095.19;;;14.92;100.00
38812;BME280;24553;51.640;-0.752;2022-07-30T04:04:19;101094.56;;;14.96;100.00
38812;BME280;24553;51.640;-0.752;2022-07-30T04:06:44;101103.41;;;15.03;100.00
38812;BME280;24553;51.640;-0.752;2022-07-30T04:09:11;101087.19;;;15.05;100.00
38812;BME280;24553;51.640;-0.752;2022-07-30T04:11:38;101089.88;;;15.05;100.00
38812;BME280;24553;51.640;-0.752;2022-07-30T04:14:04;101088.63;;;15.08;100.00
38812;BME280;24553;51.640;-0.752;2022-07-30T04:16:41;101092.94;;;15.09;100.00
38812;BME280;24553;51.640;-0.752;2022-07-30T04:19:12;101103.19;;;15.12;100.00
38812;BME280;24553;51.640;-0.752;2022-07-30T04:21:40;101108.94;;;15.15;100.00
38812;BME280;24553;51.640;-0.752;2022-07-30T04:24:07;101104.44;;;15.16;100.00
38812;BME280;24553;51.640;-0.752;2022-07-30T04:26:35;101094.56;;;15.16;100.00
38812;BME280;24553;51.640;-0.752;2022-07-30T04:29:04;101084.50;;;15.18;100.00
38812;BME280;24553;51.640;-0.752;2022-07-30T04:31:30;101084.09;;;15.15;100.00
38812;BME280;24553;51.640;-0.752;2022-07-30T04:34:01;101076.91;;;15.09;100.00
38812;BME280;24553;51.640;-0.752;2022-07-30T04:36:28;101074.47;;;15.00;100.00
38812;BME280;24553;51.640;-0.752;2022-07-30T04:38:54;101082.88;;;14.97;100.00
38812;BME280;24553;51.640;-0.752;2022-07-30T04:41:20;101084.31;;;14.93;100.00
38812;BME280;24553;51.640;-0.752;2022-07-30T04:43:45;101091.91;;;14.90;100.00
38812;BME280;24553;51.640;-0.752;2022-07-30T04:46:10;101098.69;;;14.92;100.00
38812;BME280;24553;51.640;-0.752;2022-07-30T04:48:36;101101.16;;;14.87;100.00
38812;BME280;24553;51.640;-0.752;2022-07-30T04:51:04;101096.19;;;14.84;100.00
38812;BME280;24553;51.640;-0.752;2022-07-30T04:53:34;101097.25;;;14.83;100.00
38812;BME280;24553;51.640;-0.752;2022-07-30T04:55:59;101099.91;;;14.83;100.00
38812;BME280;24553;51.640;-0.752;2022-07-30T04:58:27;101104.03;;;14.92;100.00
38812;BME280;24553;51.640;-0.752;2022-07-30T05:00:54;101104.44;;;15.02;100.00
38812;BME280;24553;51.640;-0.752;2022-07-30T05:03:22;101106.72;;;15.05;100.00
38812;BME280;24553;51.640;-0.752;2022-07-30T05:05:49;101107.31;;;15.08;100.00
38812;BME280;24553;51.640;-0.752;2022-07-30T05:08:15;101112.88;;;15.13;100.00
38812;BME280;24553;51.640;-0.752;2022-07-30T05:10:42;101104.03;;;15.19;100.00
38812;BME280;24553;51.640;-0.752;2022-07-30T05:13:12;101111.44;;;15.23;100.00
38812;BME280;24553;51.640;-0.752;2022-07-30T05:15:38;101115.53;;;15.26;100.00
38812;BME280;24553;51.640;-0.752;2022-07-30T05:18:04;101113.47;;;15.28;100.00
38812;BME280;24553;51.640;-0.752;2022-07-30T05:20:29;101115.94;;;15.23;100.00
38812;BME280;24553;51.640;-0.752;2022-07-30T05:22:54;101113.69;;;15.20;100.00
38812;BME280;24553;51.640;-0.752;2022-07-30T05:25:20;101112.03;;;15.19;100.00
38812;BME280;24553;51.640;-0.752;2022-07-30T05:27:45;101105.25;;;15.23;100.00
38812;BME280;24553;51.640;-0.752;2022-07-30T05:30:11;101094.56;;;15.23;100.00
38812;BME280;24553;51.640;-0.752;2022-07-30T05:32:36;101100.75;;;15.23;100.00
38812;BME280;24553;51.640;-0.752;2022-07-30T05:35:01;101096.41;;;15.22;100.00
38812;BME280;24553;51.640;-0.752;2022-07-30T05:37:27;101089.63;;;15.20;100.00
38812;BME280;24553;51.640;-0.752;2022-07-30T05:39:52;101095.59;;;15.22;100.00
38812;BME280;24553;51.640;-0.752;2022-07-30T05:42:18;101091.69;;;15.24;100.00
38812;BME280;24553;51.640;-0.752;2022-07-30T05:44:43;101087.38;;;15.30;100.00
38812;BME280;24553;51.640;-0.752;2022-07-30T05:47:09;101090.22;;;15.35;100.00
38812;BME280;24553;51.640;-0.752;2022-07-30T05:49:34;101096.81;;;15.39;100.00
38812;BME280;24553;51.640;-0.752;2022-07-30T05:51:59;101091.44;;;15.46;100.00
38812;BME280;24553;51.640;-0.752;2022-07-30T05:54:25;101096.38;;;15.56;100.00
38812;BME280;24553;51.640;-0.752;2022-07-30T05:56:50;101093.47;;;15.64;100.00
38812;BME280;24553;51.640;-0.752;2022-07-30T05:59:15;101092.69;;;15.70;100.00
38812;BME280;24553;51.640;-0.752;2022-07-30T06:01:41;101093.47;;;15.77;100.00
38812;BME280;24553;51.640;-0.752;2022-07-30T06:04:06;101089.16;;;15.83;100.00
38812;BME280;24553;51.640;-0.752;2022-07-30T06:06:31;101089.09;;;15.89;100.00
38812;BME280;24553;51.640;-0.752;2022-07-30T06:08:57;101074.69;;;15.97;100.00
38812;BME280;24553;51.640;-0.752;2022-07-30T06:11:22;101080.63;;;16.06;100.00
38812;BME280;24553;51.640;-0.752;2022-07-30T06:13:48;101069.69;;;16.14;100.00
38812;BME280;24553;51.640;-0.752;2022-07-30T06:16:13;101076.63;;;16.22;100.00
38812;BME280;24553;51.640;-0.752;2022-07-30T06:18:39;101073.34;;;16.26;100.00
38812;BME280;24553;51.640;-0.752;2022-07-30T06:21:04;101074.53;;;16.30;100.00
38812;BME280;24553;51.640;-0.752;2022-07-30T06:23:29;101082.13;;;16.33;100.00
38812;BME280;24553;51.640;-0.752;2022-07-30T06:25:55;101081.09;;;16.34;100.00
38812;BME280;24553;51.640;-0.752;2022-07-30T06:28:20;101086.63;;;16.40;100.00
38812;BME280;24553;51.640;-0.752;2022-07-30T06:30:46;101084.94;;;16.45;100.00
38812;BME280;24553;51.640;-0.752;2022-07-30T06:33:13;101073.16;;;16.53;100.00
38812;BME280;24553;51.640;-0.752;2022-07-30T06:35:39;101075.56;;;16.61;100.00
38812;BME280;24553;51.640;-0.752;2022-07-30T06:38:04;101052.63;;;16.72;100.00
38812;BME280;24553;51.640;-0.752;2022-07-30T06:40:30;101055.47;;;16.77;100.00
38812;BME280;24553;51.640;-0.752;2022-07-30T06:42:55;101056.28;;;16.84;100.00
38812;BME280;24553;51.640;-0.752;2022-07-30T06:45:21;101057.63;;;16.93;100.00
38812;BME280;24553;51.640;-0.752;2022-07-30T06:47:46;101058.41;;;17.00;100.00
38812;BME280;24553;51.640;-0.752;2022-07-30T06:50:11;101059.38;;;17.06;100.00
38812;BME280;24553;51.640;-0.752;2022-07-30T06:52:37;101061.66;;;17.09;100.00
38812;BME280;24553;51.640;-0.752;2022-07-30T06:55:03;101056.28;;;17.09;100.00
38812;BME280;24553;51.640;-0.752;2022-07-30T06:57:28;101063.28;;;17.10;100.00
38812;BME280;24553;51.640;-0.752;2022-07-30T06:59:54;101067.59;;;17.11;100.00
38812;BME280;24553;51.640;-0.752;2022-07-30T07:02:19;101069.09;;;17.26;100.00
38812;BME280;24553;51.640;-0.752;2022-07-30T07:04:44;101068.97;;;17.39;100.00
38812;BME280;24553;51.640;-0.752;2022-07-30T07:07:10;101071.06;;;17.55;100.00
38812;BME280;24553;51.640;-0.752;2022-07-30T07:09:35;101067.16;;;17.76;100.00
38812;BME280;24553;51.640;-0.752;2022-07-30T07:12:01;101065.44;;;18.00;100.00
38812;BME280;24553;51.640;-0.752;2022-07-30T07:14:26;101063.06;;;18.22;100.00
38812;BME280;24553;51.640;-0.752;2022-07-30T07:16:51;101067.56;;;18.40;100.00
38812;BME280;24553;51.640;-0.752;2022-07-30T07:19:17;101067.16;;;18.55;100.00
38812;BME280;24553;51.640;-0.752;2022-07-30T07:21:42;101064.63;;;18.72;100.00
38812;BME280;24553;51.640;-0.752;2022-07-30T07:24:08;101049.03;;;18.92;100.00
38812;BME280;24553;51.640;-0.752;2022-07-30T07:26:33;101053.38;;;19.05;100.00
38812;BME280;24553;51.640;-0.752;2022-07-30T07:28:59;101055.34;;;19.22;100.00
38812;BME280;24553;51.640;-0.752;2022-07-30T07:31:24;101053.91;;;19.31;100.00
38812;BME280;24553;51.640;-0.752;2022-07-30T07:33:50;101054.66;;;19.26;100.00
38812;BME280;24553;51.640;-0.752;2022-07-30T07:36:19;101064.34;;;19.27;100.00
38812;BME280;24553;51.640;-0.752;2022-07-30T07:38:44;101063.41;;;19.22;100.00
38812;BME280;24553;51.640;-0.752;2022-07-30T07:41:10;101063.53;;;19.27;100.00
38812;BME280;24553;51.640;-0.752;2022-07-30T07:43:35;101060.94;;;19.44;100.00
38812;BME280;24553;51.640;-0.752;2022-07-30T07:46:00;101063.63;;;19.67;100.00
38812;BME280;24553;51.640;-0.752;2022-07-30T07:48:26;101059.13;;;19.85;100.00
38812;BME280;24553;51.640;-0.752;2022-07-30T07:50:52;101061.34;;;19.88;100.00
38812;BME280;24553;51.640;-0.752;2022-07-30T07:53:17;101067.09;;;19.79;100.00
38812;BME280;24553;51.640;-0.752;2022-07-30T07:55:42;101063.25;;;19.75;100.00
38812;BME280;24553;51.640;-0.752;2022-07-30T07:58:08;101068.53;;;19.70;100.00
38812;BME280;24553;51.640;-0.752;2022-07-30T08:00:35;101069.31;;;19.82;100.00
38812;BME280;24553;51.640;-0.752;2022-07-30T08:03:01;101066.72;;;19.88;100.00
38812;BME280;24553;51.640;-0.752;2022-07-30T08:05:26;101077.03;;;19.91;100.00
38812;BME280;24553;51.640;-0.752;2022-07-30T08:07:52;101075.97;;;19.92;100.00
38812;BME280;24553;51.640;-0.752;2022-07-30T08:10:17;101076.06;;;19.97;100.00
38812;BME280;24553;51.640;-0.752;2022-07-30T08:12:43;101075.94;;;20.03;100.00
38812;BME280;24553;51.640;-0.752;2022-07-30T08:15:09;101079.66;;;20.02;100.00
38812;BME280;24553;51.640;-0.752;2022-07-30T08:17:41;101068.06;;;20.14;100.00
38812;BME280;24553;51.640;-0.752;2022-07-30T08:20:07;101070.69;;;20.54;100.00
38812;BME280;24553;51.640;-0.752;2022-07-30T08:22:33;101070.38;;;20.84;100.00
38812;BME280;24553;51.640;-0.752;2022-07-30T08:24:59;101074.06;;;20.95;100.00
38812;BME280;24553;51.640;-0.752;2022-07-30T08:27:24;101078.72;;;21.00;100.00
38812;BME280;24553;51.640;-0.752;2022-07-30T08:29:50;101077.59;;;20.79;100.00
38812;BME280;24553;51.640;-0.752;2022-07-30T08:32:16;101084.69;;;20.85;100.00
38812;BME280;24553;51.640;-0.752;2022-07-30T08:34:41;101080.38;;;20.84;100.00
38812;BME280;24553;51.640;-0.752;2022-07-30T08:37:06;101082.41;;;20.94;100.00
38812;BME280;24553;51.640;-0.752;2022-07-30T08:39:32;101077.81;;;20.77;100.00
38812;BME280;24553;51.640;-0.752;2022-07-30T08:41:57;101079.94;;;20.92;100.00
38812;BME280;24553;51.640;-0.752;2022-07-30T08:44:23;101066.22;;;21.10;100.00
38812;BME280;24553;51.640;-0.752;2022-07-30T08:46:50;101077.22;;;21.26;100.00
38812;BME280;24553;51.640;-0.752;2022-07-30T08:49:17;101080.81;;;21.31;100.00
38812;BME280;24553;51.640;-0.752;2022-07-30T08:51:43;101082.28;;;21.39;100.00
38812;BME280;24553;51.640;-0.752;2022-07-30T08:54:08;101068.81;;;21.39;100.00
38812;BME280;24553;51.640;-0.752;2022-07-30T08:56:34;101063.94;;;21.58;100.00
38812;BME280;24553;51.640;-0.752;2022-07-30T08:59:00;101071.41;;;21.73;100.00
38812;BME280;24553;51.640;-0.752;2022-07-30T09:01:26;101060.09;;;21.76;100.00
38812;BME280;24553;51.640;-0.752;2022-07-30T09:03:51;101065.94;;;21.90;100.00
38812;BME280;24553;51.640;-0.752;2022-07-30T09:06:17;101071.88;;;21.87;100.00
38812;BME280;24553;51.640;-0.752;2022-07-30T09:08:42;101064.50;;;21.82;100.00
38812;BME280;24553;51.640;-0.752;2022-07-30T09:11:08;101057.22;;;21.61;100.00
38812;BME280;24553;51.640;-0.752;2022-07-30T09:13:39;101054.81;;;21.86;100.00
38812;BME280;24553;51.640;-0.752;2022-07-30T09:16:06;101055.00;;;22.02;100.00
38812;BME280;24553;51.640;-0.752;2022-07-30T09:18:38;101056.09;;;22.00;100.00
38812;BME280;24553;51.640;-0.752;2022-07-30T09:21:14;101056.41;;;21.82;100.00
38812;BME280;24553;51.640;-0.752;2022-07-30T09:23:39;101056.09;;;22.00;100.00
38812;BME280;24553;51.640;-0.752;2022-07-30T09:26:05;101060.50;;;22.12;100.00
38812;BME280;24553;51.640;-0.752;2022-07-30T09:28:32;101065.00;;;22.23;100.00
38812;BME280;24553;51.640;-0.752;2022-07-30T09:30:58;101063.91;;;22.24;100.00
38812;BME280;24553;51.640;-0.752;2022-07-30T09:33:37;101059.19;;;22.36;100.00
38812;BME280;24553;51.640;-0.752;2022-07-30T09:36:10;101068.34;;;22.35;100.00
38812;BME280;24553;51.640;-0.752;2022-07-30T09:38:44;101061.28;;;22.07;100.00
38812;BME280;24553;51.640;-0.752;2022-07-30T09:41:10;101068.38;;;21.91;100.00
38812;BME280;24553;51.640;-0.752;2022-07-30T09:43:50;101067.84;;;21.89;100.00
38812;BME280;24553;51.640;-0.752;2022-07-30T09:46:16;101079.88;;;22.26;100.00
38812;BME280;24553;51.640;-0.752;2022-07-30T09:48:42;101074.38;;;22.42;100.00
38812;BME280;24553;51.640;-0.752;2022-07-30T09:51:09;101080.47;;;22.33;100.00
38812;BME280;24553;51.640;-0.752;2022-07-30T09:53:35;101081.47;;;22.49;100.00
38812;BME280;24553;51.640;-0.752;2022-07-30T09:56:24;101077.63;;;22.45;100.00
38812;BME280;24553;51.640;-0.752;2022-07-30T09:58:50;101067.63;;;22.45;100.00
38812;BME280;24553;51.640;-0.752;2022-07-30T10:01:15;101062.97;;;22.68;100.00
38812;BME280;24553;51.640;-0.752;2022-07-30T10:03:41;101073.19;;;22.93;100.00
38812;BME280;24553;51.640;-0.752;2022-07-30T10:06:08;101068.91;;;22.97;100.00
38812;BME280;24553;51.640;-0.752;2022-07-30T10:08:45;101069.91;;;22.91;100.00
38812;BME280;24553;51.640;-0.752;2022-07-30T10:11:14;101068.44;;;22.73;100.00
38812;BME280;24553;51.640;-0.752;2022-07-30T10:13:41;101070.44;;;22.88;100.00
38812;BME280;24553;51.640;-0.752;2022-07-30T10:16:08;101071.66;;;23.02;100.00
38812;BME280;24553;51.640;-0.752;2022-07-30T10:18:34;101076.09;;;23.18;100.00
38812;BME280;24553;51.640;-0.752;2022-07-30T10:21:01;101062.94;;;23.37;100.00
38812;BME280;24553;51.640;-0.752;2022-07-30T10:23:28;101059.19;;;24.06;100.00
38812;BME280;24553;51.640;-0.752;2022-07-30T10:25:57;101067.88;;;24.19;100.00
38812;BME280;24553;51.640;-0.752;2022-07-30T10:28:23;101073.00;;;24.05;100.00
38812;BME280;24553;51.640;-0.752;2022-07-30T10:30:50;101066.47;;;24.01;100.00
38812;BME280;24553;51.640;-0.752;2022-07-30T10:33:16;101074.13;;;24.19;100.00
38812;BME280;24553;51.640;-0.752;2022-07-30T10:35:42;101074.41;;;24.33;100.00
38812;BME280;24553;51.640;-0.752;2022-07-30T10:38:09;101071.22;;;24.51;100.00
38812;BME280;24553;51.640;-0.752;2022-07-30T10:40:41;101070.69;;;24.65;100.00
38812;BME280;24553;51.640;-0.752;2022-07-30T10:43:31;101066.91;;;24.76;100.00
38812;BME280;24553;51.640;-0.752;2022-07-30T10:48:38;101062.84;;;24.73;100.00
38812;BME280;24553;51.640;-0.752;2022-07-30T10:51:03;101069.88;;;24.64;100.00
38812;BME280;24553;51.640;-0.752;2022-07-30T10:53:39;101066.28;;;24.28;100.00
38812;BME280;24553;51.640;-0.752;2022-07-30T10:56:23;101067.00;;;23.98;100.00
38812;BME280;24553;51.640;-0.752;2022-07-30T11:04:23;101053.06;;;23.63;100.00
38812;BME280;24553;51.640;-0.752;2022-07-30T11:06:50;101053.28;;;23.57;100.00
38812;BME280;24553;51.640;-0.752;2022-07-30T11:09:38;101047.56;;;23.48;100.00
38812;BME280;24553;51.640;-0.752;2022-07-30T11:12:05;101056.19;;;23.40;100.00
38812;BME280;24553;51.640;-0.752;2022-07-30T11:17:14;101058.41;;;22.73;100.00
38812;BME280;24553;51.640;-0.752;2022-07-30T11:22:32;101063.50;;;22.64;100.00
38812;BME280;24553;51.640;-0.752;2022-07-30T11:27:55;101069.38;;;22.29;100.00
38812;BME280;24553;51.640;-0.752;2022-07-30T11:32:48;101060.31;;;22.73;100.00
38812;BME280;24553;51.640;-0.752;2022-07-30T11:35:19;101057.31;;;23.01;100.00
38812;BME280;24553;51.640;-0.752;2022-07-30T11:48:32;101072.38;;;23.29;100.00
38812;BME280;24553;51.640;-0.752;2022-07-30T11:50:57;101070.34;;;23.52;100.00
38812;BME280;24553;51.640;-0.752;2022-07-30T11:53:23;101059.84;;;23.66;100.00
38812;BME280;24553;51.640;-0.752;2022-07-30T11:55:54;101056.94;;;23.72;100.00
38812;BME280;24553;51.640;-0.752;2022-07-30T11:58:28;101056.34;;;23.70;100.00
38812;BME280;24553;51.640;-0.752;2022-07-30T12:00:58;101065.13;;;23.98;100.00
38812;BME280;24553;51.640;-0.752;2022-07-30T12:03:26;101066.53;;;24.21;100.00
38812;BME280;24553;51.640;-0.752;2022-07-30T12:05:52;101066.53;;;24.31;100.00
38812;BME280;24553;51.640;-0.752;2022-07-30T12:08:17;101059.53;;;24.35;100.00
38812;BME280;24553;51.640;-0.752;2022-07-30T12:10:54;101058.38;;;24.06;100.00
38812;BME280;24553;51.640;-0.752;2022-07-30T12:13:23;101053.00;;;23.53;100.00
38812;BME280;24553;51.640;-0.752;2022-07-30T12:15:48;101050.47;;;23.89;100.00
38812;BME280;24553;51.640;-0.752;2022-07-30T12:18:26;101048.44;;;24.47;100.00
38812;BME280;24553;51.640;-0.752;2022-07-30T12:20:57;101046.28;;;24.75;100.00
38812;BME280;24553;51.640;-0.752;2022-07-30T12:23:22;101046.25;;;24.90;100.00
38812;BME280;24553;51.640;-0.752;2022-07-30T12:25:48;101051.41;;;24.97;100.00
38812;BME280;24553;51.640;-0.752;2022-07-30T12:28:22;101053.34;;;24.91;100.00
38812;BME280;24553;51.640;-0.752;2022-07-30T12:30:48;101043.84;;;24.94;100.00
38812;BME280;24553;51.640;-0.752;2022-07-30T12:33:14;101031.53;;;25.37;100.00
38812;BME280;24553;51.640;-0.752;2022-07-30T12:35:47;101035.53;;;25.55;100.00
38812;BME280;24553;51.640;-0.752;2022-07-30T12:38:14;101023.19;;;25.88;100.00
38812;BME280;24553;51.640;-0.752;2022-07-30T12:41:02;101029.91;;;26.01;100.00
38812;BME280;24553;51.640;-0.752;2022-07-30T12:43:50;101020.38;;;26.04;100.00
38812;BME280;24553;51.640;-0.752;2022-07-30T12:46:21;101022.50;;;26.12;100.00
38812;BME280;24553;51.640;-0.752;2022-07-30T12:51:20;101009.31;;;25.35;100.00
38812;BME280;24553;51.640;-0.752;2022-07-30T12:53:46;101007.13;;;25.27;100.00
38812;BME280;24553;51.640;-0.752;2022-07-30T12:56:17;100999.16;;;25.56;100.00
38812;BME280;24553;51.640;-0.752;2022-07-30T12:58:43;101002.25;;;25.89;100.00
38812;BME280;24553;51.640;-0.752;2022-07-30T13:01:09;101002.44;;;26.08;100.00
38812;BME280;24553;51.640;-0.752;2022-07-30T13:03:36;101003.41;;;26.22;100.00